createdAt,value
2017-12-13T00:01:11.116Z,100.00
2017-12-13T00:03:39.038Z,100.00
2017-12-13T00:06:06.491Z,100.00
2017-12-13T00:08:33.953Z,100.00
2017-12-13T00:11:01.811Z,100.00
2017-12-13T00:13:29.269Z,100.00
2017-12-13T00:15:56.726Z,100.00
2017-12-13T00:18:24.540Z,100.00
2017-12-13T00:20:52.000Z,100.00
2017-12-13T00:23:20.104Z,100.00
2017-12-13T00:25:48.109Z,100.00
2017-12-13T00:28:15.565Z,100.00
2017-12-13T00:30:43.024Z,100.00
2017-12-13T00:33:11.700Z,100.00
2017-12-13T00:35:39.166Z,100.00
2017-12-13T00:38:06.635Z,100.00
2017-12-13T00:40:34.383Z,100.00
2017-12-13T00:43:01.842Z,100.00
2017-12-13T00:45:29.295Z,100.00
2017-12-13T00:47:57.081Z,100.00
2017-12-13T00:50:24.539Z,100.00
2017-12-13T00:52:52.004Z,100.00
2017-12-13T00:55:19.778Z,100.00
2017-12-13T00:57:47.226Z,100.00
2017-12-13T01:00:14.705Z,100.00
2017-12-13T01:02:42.388Z,100.00
2017-12-13T01:05:09.917Z,100.00
2017-12-13T01:07:37.397Z,100.00
2017-12-13T01:10:08.213Z,100.00
2017-12-13T01:12:35.677Z,100.00
2017-12-13T01:15:03.128Z,100.00
2017-12-13T01:17:30.893Z,100.00
2017-12-13T01:19:58.352Z,100.00
2017-12-13T01:22:25.802Z,100.00
2017-12-13T01:24:55.727Z,100.00
2017-12-13T01:27:23.185Z,100.00
2017-12-13T01:29:50.640Z,100.00
2017-12-13T01:32:18.721Z,100.00
2017-12-13T01:34:46.177Z,100.00
2017-12-13T01:37:13.631Z,100.00
2017-12-13T01:39:41.346Z,100.00
2017-12-13T01:42:08.799Z,100.00
2017-12-13T01:44:36.253Z,100.00
2017-12-13T01:47:03.988Z,100.00
2017-12-13T01:49:31.449Z,100.00
2017-12-13T01:51:58.902Z,100.00
2017-12-13T01:54:26.785Z,100.00
2017-12-13T01:56:54.240Z,100.00
2017-12-13T01:59:21.685Z,100.00
2017-12-13T02:01:49.782Z,100.00
2017-12-13T02:04:17.246Z,100.00
2017-12-13T02:06:44.737Z,100.00
2017-12-13T02:09:12.400Z,100.00
2017-12-13T02:11:39.860Z,100.00
2017-12-13T02:14:07.327Z,100.00
2017-12-13T02:16:35.148Z,100.00
2017-12-13T02:19:02.608Z,100.00
2017-12-13T02:21:30.074Z,100.00
2017-12-13T02:23:57.840Z,100.00
2017-12-13T02:26:25.997Z,100.00
2017-12-13T02:28:53.490Z,100.00
2017-12-13T02:31:21.448Z,100.00
2017-12-13T02:33:48.906Z,100.00
2017-12-13T02:36:16.357Z,100.00
2017-12-13T02:38:44.185Z,100.00
2017-12-13T02:41:11.642Z,100.00
2017-12-13T02:43:39.109Z,100.00
2017-12-13T02:46:06.829Z,100.00
2017-12-13T02:48:34.289Z,100.00
2017-12-13T02:51:01.754Z,100.00
2017-12-13T02:53:29.818Z,100.00
2017-12-13T02:55:57.272Z,100.00
2017-12-13T02:58:24.723Z,100.00
2017-12-13T03:00:52.553Z,100.00
2017-12-13T03:03:20.015Z,100.00
2017-12-13T03:05:47.471Z,100.00
2017-12-13T03:08:15.188Z,100.00
2017-12-13T03:10:42.644Z,100.00
2017-12-13T03:13:10.814Z,100.00
2017-12-13T03:15:38.801Z,100.00
2017-12-13T03:18:06.272Z,100.00
2017-12-13T03:20:33.749Z,100.00
2017-12-13T03:23:01.490Z,100.00
2017-12-13T03:25:28.945Z,100.00
2017-12-13T03:34:40.385Z,100.00
2017-12-13T03:37:07.841Z,100.00
2017-12-13T03:39:35.305Z,100.00
2017-12-13T03:42:03.068Z,100.00
2017-12-13T03:44:30.521Z,100.00
2017-12-13T03:46:57.973Z,100.00
2017-12-13T03:49:26.072Z,100.00
2017-12-13T03:51:53.532Z,100.00
2017-12-13T03:54:20.991Z,100.00
2017-12-13T03:56:49.055Z,100.00
2017-12-13T03:59:16.516Z,100.00
2017-12-13T04:01:43.986Z,100.00
2017-12-13T04:04:11.566Z,100.00
2017-12-13T04:06:39.019Z,100.00
2017-12-13T04:09:06.472Z,100.00
2017-12-13T04:11:34.443Z,100.00
2017-12-13T04:14:01.894Z,100.00
2017-12-13T04:16:29.365Z,100.00
2017-12-13T04:18:57.126Z,100.00
2017-12-13T04:21:24.598Z,100.00
2017-12-13T04:23:52.051Z,100.00
2017-12-13T04:26:19.773Z,100.00
2017-12-13T04:28:48.542Z,100.00
2017-12-13T04:31:16.003Z,100.00
2017-12-13T04:33:43.975Z,100.00
2017-12-13T04:36:11.448Z,100.00
2017-12-13T04:38:38.905Z,100.00
2017-12-13T04:41:06.715Z,100.00
2017-12-13T04:43:34.175Z,100.00
2017-12-13T04:46:01.628Z,100.00
2017-12-13T04:48:29.711Z,100.00
2017-12-13T04:50:57.172Z,100.00
2017-12-13T04:53:24.634Z,100.00
2017-12-13T04:55:52.300Z,100.00
2017-12-13T04:58:19.761Z,100.00
2017-12-13T05:00:47.216Z,100.00
2017-12-13T05:03:15.090Z,100.00
2017-12-13T05:05:42.552Z,100.00
2017-12-13T05:08:10.009Z,100.00
2017-12-13T05:10:39.665Z,100.00
2017-12-13T05:13:07.450Z,100.00
2017-12-13T05:15:34.908Z,100.00
2017-12-13T05:18:02.677Z,100.00
2017-12-13T05:20:30.189Z,100.00
2017-12-13T05:22:57.640Z,100.00
2017-12-13T05:25:25.684Z,100.00
2017-12-13T05:27:53.146Z,100.00
2017-12-13T05:30:20.600Z,100.00
2017-12-13T05:32:48.349Z,100.00
2017-12-13T05:35:15.809Z,100.00
2017-12-13T05:37:43.271Z,100.00
2017-12-13T05:40:11.032Z,100.00
2017-12-13T05:42:38.490Z,100.00
2017-12-13T05:45:05.947Z,100.00
2017-12-13T05:47:33.731Z,100.00
2017-12-13T05:50:01.197Z,100.00
2017-12-13T05:52:28.657Z,100.00
2017-12-13T05:54:56.420Z,100.00
2017-12-13T05:57:23.882Z,100.00
2017-12-13T05:59:51.346Z,100.00
2017-12-13T06:02:19.013Z,100.00
2017-12-13T06:04:47.150Z,100.00
2017-12-13T06:07:14.623Z,100.00
2017-12-13T06:09:42.508Z,100.00
2017-12-13T06:12:10.561Z,100.00
2017-12-13T06:14:38.016Z,100.00
2017-12-13T06:17:06.130Z,100.00
2017-12-13T06:19:33.576Z,100.00
2017-12-13T06:22:01.029Z,100.00
2017-12-13T06:24:29.008Z,100.00
2017-12-13T06:26:56.470Z,100.00
2017-12-13T06:29:23.936Z,100.00
2017-12-13T06:31:51.999Z,100.00
2017-12-13T06:34:19.462Z,100.00
2017-12-13T06:36:46.921Z,100.00
2017-12-13T06:39:14.691Z,100.00
2017-12-13T06:41:42.146Z,100.00
2017-12-13T06:44:09.599Z,100.00
2017-12-13T06:46:37.377Z,100.00
2017-12-13T06:49:04.826Z,100.00
2017-12-13T06:51:32.284Z,100.00
2017-12-13T06:54:00.370Z,100.00
2017-12-13T06:56:27.854Z,100.00
2017-12-13T06:58:55.327Z,100.00
2017-12-13T07:01:23.374Z,100.00
2017-12-13T07:03:50.828Z,100.00
2017-12-13T07:06:18.298Z,100.00
2017-12-13T07:08:46.055Z,100.00
2017-12-13T07:11:13.541Z,100.00
2017-12-13T07:13:41.664Z,100.00
2017-12-13T07:16:09.621Z,100.00
2017-12-13T07:18:37.090Z,100.00
2017-12-13T07:21:04.553Z,100.00
2017-12-13T07:23:32.392Z,100.00
2017-12-13T07:25:59.872Z,100.00
2017-12-13T07:28:27.340Z,100.00
2017-12-13T07:30:55.014Z,100.00
2017-12-13T07:33:22.482Z,100.00
2017-12-13T07:35:49.944Z,100.00
2017-12-13T07:38:18.332Z,100.00
2017-12-13T07:40:45.793Z,100.00
2017-12-13T07:43:13.249Z,100.00
2017-12-13T07:45:40.925Z,100.00
2017-12-13T07:48:08.428Z,100.00
2017-12-13T07:50:35.901Z,100.00
2017-12-13T07:53:03.704Z,100.00
2017-12-13T07:55:31.174Z,100.00
2017-12-13T07:57:58.636Z,100.00
2017-12-13T08:00:26.473Z,100.00
2017-12-13T08:02:53.931Z,100.00
2017-12-13T08:05:21.385Z,100.00
2017-12-13T08:07:49.245Z,100.00
2017-12-13T08:10:16.725Z,100.00
2017-12-13T08:12:44.187Z,100.00
2017-12-13T08:15:13.013Z,100.00
2017-12-13T08:17:40.470Z,100.00
2017-12-13T08:20:07.924Z,100.00
2017-12-13T08:22:35.737Z,100.00
2017-12-13T08:25:03.193Z,100.00
2017-12-13T08:27:30.645Z,100.00
2017-12-13T08:29:58.370Z,100.00
2017-12-13T08:32:25.835Z,100.00
2017-12-13T08:34:53.297Z,100.00
2017-12-13T08:37:21.061Z,100.00
2017-12-13T08:39:48.527Z,100.00
2017-12-13T08:42:15.985Z,100.00
2017-12-13T08:44:43.754Z,100.00
2017-12-13T08:47:11.211Z,100.00
2017-12-13T08:49:38.677Z,100.00
2017-12-13T08:52:06.436Z,100.00
2017-12-13T08:54:33.909Z,100.00
2017-12-13T08:57:01.373Z,100.00
2017-12-13T08:59:29.116Z,100.00
2017-12-13T09:01:56.573Z,100.00
2017-12-13T09:04:24.035Z,100.00
2017-12-13T09:06:51.812Z,100.00
2017-12-13T09:09:19.273Z,100.00
2017-12-13T09:11:46.725Z,100.00
2017-12-13T09:14:14.453Z,100.00
2017-12-13T09:16:43.556Z,100.00
2017-12-13T09:19:11.021Z,100.00
2017-12-13T09:21:39.018Z,100.00
2017-12-13T09:24:06.481Z,100.00
2017-12-13T09:26:33.944Z,100.00
2017-12-13T09:29:01.713Z,100.00
2017-12-13T09:31:29.461Z,100.00
2017-12-13T09:33:56.913Z,100.00
2017-12-13T09:36:24.718Z,100.00
2017-12-13T09:38:52.189Z,100.00
2017-12-13T09:41:19.645Z,100.00
2017-12-13T09:43:47.395Z,100.00
2017-12-13T09:46:14.852Z,100.00
2017-12-13T09:48:42.359Z,100.00
2017-12-13T09:51:10.358Z,100.00
2017-12-13T09:53:37.819Z,100.00
2017-12-13T09:56:05.283Z,100.00
2017-12-13T09:58:33.058Z,100.00
2017-12-13T10:01:00.504Z,100.00
2017-12-13T10:03:27.973Z,100.00
2017-12-13T10:05:55.682Z,99.97
2017-12-13T10:08:23.139Z,100.00
2017-12-13T10:10:50.604Z,100.00
2017-12-13T10:13:18.285Z,100.00
2017-12-13T10:15:45.745Z,99.49
2017-12-13T10:18:13.752Z,98.94
2017-12-13T10:20:41.440Z,98.03
2017-12-13T10:23:08.892Z,97.16
2017-12-13T10:32:20.025Z,96.84
2017-12-13T10:34:47.474Z,95.70
2017-12-13T10:37:14.921Z,95.81
2017-12-13T10:39:42.702Z,95.20
2017-12-13T10:42:10.149Z,96.53
2017-12-13T10:44:37.609Z,95.18
2017-12-13T10:47:05.397Z,94.88
2017-12-13T10:49:32.857Z,93.11
2017-12-13T10:52:00.305Z,92.31
2017-12-13T10:54:28.097Z,91.35
2017-12-13T10:56:55.560Z,90.70
2017-12-13T10:59:23.013Z,92.10
2017-12-13T11:01:50.656Z,89.92
2017-12-13T11:04:18.107Z,89.02
2017-12-13T11:06:45.552Z,87.46
2017-12-13T11:09:13.472Z,89.56
2017-12-13T11:11:40.926Z,88.71
2017-12-13T11:14:08.393Z,88.25
2017-12-13T11:16:36.446Z,87.00
2017-12-13T11:19:04.326Z,84.37
2017-12-13T11:21:31.761Z,83.72
2017-12-13T11:23:59.446Z,82.30
2017-12-13T11:26:26.895Z,82.06
2017-12-13T11:28:54.341Z,82.70
2017-12-13T11:31:22.035Z,83.62
2017-12-13T11:33:49.485Z,82.25
2017-12-13T11:36:16.940Z,82.48
2017-12-13T11:38:45.083Z,84.89
2017-12-13T11:41:12.533Z,84.51
2017-12-13T11:43:39.994Z,85.11
2017-12-13T11:46:07.823Z,85.24
2017-12-13T11:48:35.290Z,84.21
2017-12-13T11:51:02.742Z,85.76
2017-12-13T11:53:30.810Z,83.65
2017-12-13T11:55:58.269Z,83.29
2017-12-13T11:58:25.727Z,83.79
2017-12-13T12:00:53.812Z,81.55
2017-12-13T12:03:21.310Z,77.89
2017-12-13T12:05:49.511Z,67.40
2017-12-13T12:08:17.425Z,58.67
2017-12-13T12:10:44.881Z,58.48
2017-12-13T12:13:12.337Z,52.31
2017-12-13T12:15:40.104Z,56.60
2017-12-13T12:18:07.569Z,51.92
2017-12-13T12:20:35.406Z,52.03
2017-12-13T12:23:03.226Z,49.86
2017-12-13T12:25:30.682Z,47.55
2017-12-13T12:27:58.142Z,45.20
2017-12-13T12:30:26.086Z,47.28
2017-12-13T12:32:53.534Z,44.91
2017-12-13T12:35:20.982Z,43.14
2017-12-13T12:37:49.390Z,45.37
2017-12-13T12:40:16.844Z,42.51
2017-12-13T12:42:44.299Z,43.27
2017-12-13T12:45:11.952Z,43.21
2017-12-13T12:47:39.409Z,46.60
2017-12-13T12:50:06.857Z,45.10
2017-12-13T12:52:34.709Z,40.31
2017-12-13T12:55:02.163Z,43.89
2017-12-13T12:57:29.608Z,40.43
2017-12-13T12:59:57.449Z,35.12
2017-12-13T13:02:24.910Z,39.94
2017-12-13T13:04:52.358Z,40.79
2017-12-13T13:07:20.148Z,37.06
2017-12-13T13:09:47.696Z,39.89
2017-12-13T13:12:15.146Z,41.97
2017-12-13T13:14:42.821Z,43.42
2017-12-13T13:17:10.269Z,38.14
2017-12-13T13:19:37.716Z,41.67
2017-12-13T13:22:06.285Z,40.37
2017-12-13T13:24:33.833Z,41.18
2017-12-13T13:27:01.299Z,41.59
2017-12-13T13:29:29.166Z,40.95
2017-12-13T13:31:56.633Z,44.11
2017-12-13T13:34:24.086Z,43.36
2017-12-13T13:36:51.814Z,44.07
2017-12-13T13:39:19.268Z,46.15
2017-12-13T13:41:46.717Z,44.89
2017-12-13T13:44:14.494Z,42.46
2017-12-13T13:46:41.938Z,42.17
2017-12-13T13:49:09.393Z,43.00
2017-12-13T13:51:37.476Z,41.68
2017-12-13T13:54:04.923Z,37.54
2017-12-13T13:56:32.376Z,39.44
2017-12-13T13:58:59.951Z,42.92
2017-12-13T14:01:27.395Z,45.87
2017-12-13T14:03:54.846Z,45.74
2017-12-13T14:06:22.549Z,45.78
2017-12-13T14:08:50.006Z,41.67
2017-12-13T14:11:17.445Z,45.81
2017-12-13T14:13:45.233Z,47.80
2017-12-13T14:16:12.676Z,52.29
2017-12-13T14:18:40.126Z,47.54
2017-12-13T14:21:07.966Z,48.78
2017-12-13T14:23:35.445Z,50.60
2017-12-13T14:26:02.894Z,52.85
2017-12-13T14:28:30.605Z,59.84
2017-12-13T14:30:58.064Z,61.36
2017-12-13T14:33:25.515Z,59.21
2017-12-13T14:35:53.297Z,58.69
2017-12-13T14:38:20.735Z,58.36
2017-12-13T14:40:48.283Z,57.99
2017-12-13T14:43:15.982Z,59.06
2017-12-13T14:45:43.538Z,58.29
2017-12-13T14:48:10.985Z,59.13
2017-12-13T14:50:38.678Z,60.49
2017-12-13T14:53:06.125Z,63.71
2017-12-13T14:55:33.568Z,64.43
2017-12-13T14:58:01.358Z,66.91
2017-12-13T15:00:28.802Z,65.44
2017-12-13T15:02:56.241Z,65.66
2017-12-13T15:05:24.078Z,66.36
2017-12-13T15:07:51.513Z,67.12
2017-12-13T15:10:18.968Z,69.37
2017-12-13T15:12:47.041Z,70.64
2017-12-13T15:15:14.484Z,71.22
2017-12-13T15:17:41.933Z,71.77
2017-12-13T15:20:09.727Z,74.10
2017-12-13T15:22:37.174Z,75.01
2017-12-13T15:25:05.326Z,74.50
2017-12-13T15:27:33.161Z,78.87
2017-12-13T15:30:00.620Z,75.50
2017-12-13T15:32:28.061Z,75.83
2017-12-13T15:34:56.042Z,76.85
2017-12-13T15:37:23.488Z,77.08
2017-12-13T15:39:50.937Z,77.98
2017-12-13T15:42:18.568Z,77.99
2017-12-13T15:44:46.026Z,78.30
2017-12-13T15:47:13.476Z,79.23
2017-12-13T15:49:41.390Z,79.13
2017-12-13T15:52:10.348Z,81.20
2017-12-13T15:54:37.800Z,82.22
2017-12-13T15:57:05.491Z,83.59
2017-12-13T15:59:32.938Z,84.58
2017-12-13T16:02:00.393Z,85.34
2017-12-13T16:04:28.312Z,86.21
2017-12-13T16:06:55.754Z,87.33
2017-12-13T16:09:23.205Z,87.95
2017-12-13T16:11:50.992Z,89.05
2017-12-13T16:14:18.433Z,88.94
2017-12-13T16:16:45.876Z,90.20
2017-12-13T16:19:13.691Z,90.25
2017-12-13T16:21:41.142Z,87.97
2017-12-13T16:24:08.588Z,88.45
2017-12-13T16:26:38.017Z,89.87
2017-12-13T16:29:05.723Z,89.67
2017-12-13T16:31:33.180Z,90.59
2017-12-13T16:34:01.213Z,91.06
2017-12-13T16:36:28.649Z,90.00
2017-12-13T16:38:56.101Z,89.88
2017-12-13T16:41:23.897Z,89.77
2017-12-13T16:43:51.335Z,90.37
2017-12-13T16:46:18.780Z,89.63
2017-12-13T16:48:46.577Z,89.29
2017-12-13T16:51:14.022Z,89.79
2017-12-13T16:53:41.473Z,88.65
2017-12-13T16:56:09.265Z,87.92
2017-12-13T16:58:36.705Z,88.33
2017-12-13T17:01:04.206Z,86.75
2017-12-13T17:03:31.798Z,87.81
2017-12-13T17:05:59.258Z,86.70
2017-12-13T17:08:26.707Z,86.60
2017-12-13T17:10:54.638Z,86.36
2017-12-13T17:13:22.079Z,86.79
2017-12-13T17:15:49.530Z,85.77
2017-12-13T17:18:17.326Z,86.09
2017-12-13T17:20:44.773Z,86.27
2017-12-13T17:23:12.224Z,86.22
2017-12-13T17:25:39.990Z,85.57
2017-12-13T17:28:07.801Z,85.98
2017-12-13T17:30:35.258Z,85.44
2017-12-13T17:33:03.018Z,86.74
2017-12-13T17:35:30.464Z,86.55
2017-12-13T17:37:57.907Z,86.22
2017-12-13T17:40:25.694Z,87.20
2017-12-13T17:42:53.140Z,87.05
2017-12-13T17:45:20.612Z,85.53
2017-12-13T17:47:48.376Z,86.38
2017-12-13T17:50:15.825Z,86.97
2017-12-13T17:52:43.288Z,88.06
2017-12-13T17:55:11.098Z,88.00
2017-12-13T17:57:38.554Z,88.76
2017-12-13T18:00:06.017Z,88.24
2017-12-13T18:02:33.761Z,93.25
2017-12-13T18:05:01.232Z,91.23
2017-12-13T18:07:28.682Z,97.23
2017-12-13T18:09:56.317Z,88.19
2017-12-13T18:12:23.766Z,89.69
2017-12-13T18:14:51.226Z,89.13
2017-12-13T18:17:19.198Z,90.77
2017-12-13T18:19:46.651Z,90.81
2017-12-13T18:22:14.105Z,89.99
2017-12-13T18:24:41.806Z,89.99
2017-12-13T18:27:09.261Z,89.63
2017-12-13T18:29:37.109Z,89.51
2017-12-13T18:32:05.157Z,88.89
2017-12-13T18:34:32.589Z,88.90
2017-12-13T18:37:00.044Z,89.72
2017-12-13T18:39:27.809Z,89.58
2017-12-13T18:41:55.260Z,88.88
2017-12-13T18:44:22.704Z,89.19
2017-12-13T18:46:50.486Z,91.15
2017-12-13T18:49:17.935Z,90.27
2017-12-13T18:51:45.381Z,89.83
2017-12-13T18:54:13.176Z,90.16
2017-12-13T18:56:40.629Z,88.73
2017-12-13T18:59:08.086Z,88.03
2017-12-13T19:01:35.861Z,88.88
2017-12-13T19:04:03.306Z,88.17
2017-12-13T19:06:30.762Z,88.05
2017-12-13T19:08:58.545Z,96.45
2017-12-13T19:11:25.991Z,89.19
2017-12-13T19:13:53.489Z,87.68
2017-12-13T19:16:21.250Z,89.89
2017-12-13T19:18:48.705Z,89.19
2017-12-13T19:21:16.154Z,86.94
2017-12-13T19:23:43.958Z,89.02
2017-12-13T19:26:11.415Z,89.65
2017-12-13T19:28:38.890Z,89.43
2017-12-13T19:31:07.556Z,86.79
2017-12-13T19:33:35.005Z,85.66
2017-12-13T19:36:02.462Z,86.38
2017-12-13T19:38:30.230Z,86.53
2017-12-13T19:40:57.674Z,88.00
2017-12-13T19:43:25.139Z,84.56
2017-12-13T19:45:52.914Z,84.90
2017-12-13T19:48:20.361Z,86.13
2017-12-13T19:50:47.818Z,86.06
2017-12-13T19:53:15.592Z,86.50
2017-12-13T19:55:43.038Z,83.92
2017-12-13T19:58:10.557Z,84.73
2017-12-13T20:00:38.599Z,86.47
2017-12-13T20:03:06.057Z,87.00
2017-12-13T20:05:33.507Z,86.56
2017-12-13T20:08:01.279Z,85.49
2017-12-13T20:10:28.735Z,85.45
2017-12-13T20:12:56.225Z,84.64
2017-12-13T20:15:23.977Z,82.71
2017-12-13T20:17:51.435Z,82.16
2017-12-13T20:20:18.885Z,82.82
2017-12-13T20:22:46.658Z,81.99
2017-12-13T20:25:14.117Z,81.82
2017-12-13T20:27:41.576Z,81.39
2017-12-13T20:30:09.349Z,81.70
2017-12-13T20:32:36.869Z,80.85
2017-12-13T20:35:05.233Z,82.11
2017-12-13T20:37:32.967Z,81.34
2017-12-13T20:40:00.414Z,81.30
2017-12-13T20:42:27.863Z,81.67
2017-12-13T20:44:55.638Z,82.34
2017-12-13T20:47:23.078Z,81.48
2017-12-13T20:49:50.669Z,85.77
2017-12-13T20:52:18.637Z,82.09
2017-12-13T20:54:46.115Z,80.12
2017-12-13T20:57:13.566Z,80.36
2017-12-13T20:59:41.647Z,84.61
2017-12-13T21:02:09.132Z,83.77
2017-12-13T21:04:36.588Z,84.10
2017-12-13T21:07:04.369Z,87.06
2017-12-13T21:09:31.816Z,84.93
2017-12-13T21:11:59.253Z,85.00
2017-12-13T21:14:27.346Z,86.42
2017-12-13T21:16:54.794Z,88.82
2017-12-13T21:19:22.242Z,88.73
2017-12-13T21:21:49.986Z,86.48
2017-12-13T21:24:17.426Z,88.41
2017-12-13T21:26:44.865Z,88.80
2017-12-13T21:29:12.670Z,90.33
2017-12-13T21:31:40.122Z,90.03
2017-12-13T21:34:08.294Z,89.73
2017-12-13T21:36:36.006Z,92.28
2017-12-13T21:39:03.441Z,92.21
2017-12-13T21:41:30.894Z,91.46
2017-12-13T21:43:58.966Z,89.20
2017-12-13T21:46:26.412Z,89.47
2017-12-13T21:48:53.859Z,90.05
2017-12-13T21:51:21.657Z,89.42
2017-12-13T21:53:49.101Z,89.83
2017-12-13T21:56:17.753Z,90.20
2017-12-13T21:58:45.445Z,91.18
2017-12-13T22:01:12.887Z,91.79
2017-12-13T22:03:40.345Z,92.84
2017-12-13T22:06:08.252Z,92.43
2017-12-13T22:08:35.697Z,92.67
2017-12-13T22:11:03.152Z,92.90
2017-12-13T22:13:30.942Z,94.21
2017-12-13T22:15:58.381Z,94.20
2017-12-13T22:18:25.834Z,93.67
2017-12-13T22:20:53.637Z,94.59
2017-12-13T22:23:21.082Z,95.80
2017-12-13T22:25:48.524Z,94.77
2017-12-13T22:28:16.162Z,95.77
2017-12-13T22:30:43.608Z,96.93
2017-12-13T22:33:11.052Z,97.78
2017-12-13T22:35:41.158Z,97.70
2017-12-13T22:38:08.628Z,97.34
2017-12-13T22:40:36.072Z,97.94
2017-12-13T22:43:03.856Z,97.50
2017-12-13T22:45:31.314Z,98.72
2017-12-13T22:47:58.757Z,100.00
2017-12-13T22:50:26.545Z,100.00
2017-12-13T22:52:54.001Z,100.00
2017-12-13T22:55:21.448Z,100.00
2017-12-13T22:57:49.536Z,100.00
2017-12-13T23:00:16.985Z,100.00
2017-12-13T23:02:44.433Z,100.00
2017-12-13T23:05:12.220Z,99.34
2017-12-13T23:07:39.668Z,100.00
2017-12-13T23:10:07.120Z,97.99
2017-12-13T23:12:34.898Z,96.02
2017-12-13T23:15:02.338Z,97.21
2017-12-13T23:17:29.794Z,96.78
2017-12-13T23:19:57.581Z,96.50
2017-12-13T23:22:25.021Z,95.44
2017-12-13T23:24:52.461Z,95.59
2017-12-13T23:27:20.285Z,95.17
2017-12-13T23:29:47.734Z,96.59
2017-12-13T23:32:15.182Z,96.56
2017-12-13T23:34:43.279Z,96.65
2017-12-13T23:37:11.561Z,96.81
2017-12-13T23:39:39.005Z,98.22
2017-12-13T23:42:06.619Z,97.86
2017-12-13T23:44:34.055Z,97.72
2017-12-13T23:47:01.780Z,97.44
2017-12-13T23:49:29.775Z,97.51
2017-12-13T23:51:57.208Z,97.54
2017-12-13T23:54:24.662Z,96.91
2017-12-13T23:56:52.564Z,96.54
2017-12-13T23:59:20.001Z,97.08
